Humboldt Bay — A8OL4 — position and weather

sailwx.info

Track history (hours):
 
Tides and Currents Weather Stations Pressure Air Temp Water Temp Dewpoint Dewpoint Depression Visibility Wind Speed Wind Dir Waves Ship Positions

Humboldt Bay

Last reported at 2018-May-16 11:11 UTC. Time now 2018-May-22 08:41 UTC.
Position N 34°23' W 025°59'.

Length 147 m; draft 5.9 m.

Type: Cargo ship. MMSI: 636013649.

Date/timePositionNaut miles runAvg speedWind from/ knotsBaromVisibWave heightAir tempDewpointWater temp
2018-May-16 11:11N 34°23' W 025°59'314.3
2018-May-16 11:00N 34°23' W 025°55'812.8
2018-May-16 10:24N 34°24' W 025°46'10 8.3
2018-May-16 09:13N 34°26' W 025°34'515.4
2018-May-16 08:55N 34°27' W 025°29'916.1
2018-May-16 08:22N 34°29' W 025°18'1016.4
2018-May-16 07:46N 34°31' W 025°07'716.4
2018-May-16 07:20N 34°33' W 024°58'916.2
2018-May-16 06:46N 34°34' W 024°48'816.0
2018-May-16 06:18N 34°36' W 024°39'515.9
2018-May-16 06:00N 34°37' W 024°33'2515.8
2018-May-16 04:27N 34°42' W 024°04'1115.5
2018-May-16 03:45N 34°44' W 023°51'515.6
2018-May-16 03:27N 34°45' W 023°45'815.5
2018-May-16 02:57N 34°47' W 023°36'2015.7
2018-May-16 01:41N 34°50' W 023°12'815.7
2018-May-16 01:09N 34°52' W 023°02'  
2018-May-13 16:59N 35°57' W 005°39'511.2
2018-May-13 16:31N 35°58' W 005°32'510.6
2018-May-13 16:01N 36°00' W 005°26'5 9.8
2018-May-13 15:31N 36°05' W 005°24'2 3.1
2018-May-13 15:00N 36°06' W 005°25'0 0.0
2018-May-13 14:30N 36°06' W 005°25'0 0.0
2018-May-13 14:00N 36°06' W 005°25'0 0.0
2018-May-13 13:30N 36°06' W 005°25'0 0.1
2018-May-13 12:54N 36°06' W 005°25'0 0.1
2018-May-13 12:30N 36°06' W 005°25'0 0.0
2018-May-13 11:57N 36°06' W 005°25'0 0.1
2018-May-13 11:30N 36°06' W 005°25'0 0.3
2018-May-13 11:00N 36°06' W 005°25'0 0.2
2018-May-13 10:30N 36°06' W 005°25'0 0.0
2018-May-13 09:57N 36°06' W 005°25'0 0.1
2018-May-13 08:45N 36°06' W 005°25'0 0.1
2018-May-13 08:30N 36°06' W 005°25'0 0.0
2018-May-13 08:00N 36°06' W 005°25'0 0.0
2018-May-13 07:30N 36°06' W 005°25'0 0.0
2018-May-13 07:00N 36°06' W 005°25'0 0.1
2018-May-13 06:30N 36°06' W 005°25'0 0.1
2018-May-13 06:00N 36°06' W 005°25'0 0.1
2018-May-13 05:30N 36°06' W 005°25'0 0.0
2018-May-13 05:00N 36°06' W 005°25'0 0.0
2018-May-13 04:30N 36°06' W 005°25'0 0.1
2018-May-13 04:00N 36°06' W 005°25'0 0.1
2018-May-13 03:30N 36°06' W 005°25'0 0.0
2018-May-13 03:00N 36°06' W 005°25'0 0.1
2018-May-13 02:30N 36°06' W 005°25'0 0.1
2018-May-13 02:00N 36°06' W 005°25'1 1.9
2018-May-13 01:31N 36°06' W 005°24'3 6.5
2018-May-13 01:01N 36°03' W 005°21'4 8.3
2018-May-13 00:31N 36°04' W 005°16'5 9.7
2018-May-13 00:00N 36°05' W 005°10'5 9.9
2018-May-12 23:29N 36°05' W 005°03'611.5
2018-May-12 22:59N 36°06' W 004°56'24514.3
2018-May-12 05:55N 36°41' E 000°05'715.6
2018-May-12 05:28N 36°42' E 000°13'4214.8
2018-May-12 02:39N 36°49' E 001°04'1114.6
2018-May-12 01:52N 36°53' E 001°18'615.4
2018-May-12 01:30N 36°54' E 001°25'815.5
2018-May-12 01:00N 36°56' E 001°34'  
Track history (hours):
 
Tides and Currents Weather Stations Pressure Air Temp Water Temp Dewpoint Dewpoint Depression Visibility Wind Speed Wind Dir Waves Ship Positions

Humboldt Bay

Last reported at 2018-May-16 11:11 UTC. Time now 2018-May-22 08:41 UTC.
Position N 34°23' W 025°59'.

Length 147 m; draft 5.9 m.

Type: Cargo ship. MMSI: 636013649.

Date/timePositionNaut miles runAvg speedWind from/ knotsBaromVisibWave heightAir tempDewpointWater temp
2018-May-16 11:11N 34°23' W 025°59'314.3
2018-May-16 11:00N 34°23' W 025°55'812.8
2018-May-16 10:24N 34°24' W 025°46'10 8.3
2018-May-16 09:13N 34°26' W 025°34'515.4
2018-May-16 08:55N 34°27' W 025°29'916.1
2018-May-16 08:22N 34°29' W 025°18'1016.4
2018-May-16 07:46N 34°31' W 025°07'716.4
2018-May-16 07:20N 34°33' W 024°58'916.2
2018-May-16 06:46N 34°34' W 024°48'816.0
2018-May-16 06:18N 34°36' W 024°39'515.9
2018-May-16 06:00N 34°37' W 024°33'2515.8
2018-May-16 04:27N 34°42' W 024°04'1115.5
2018-May-16 03:45N 34°44' W 023°51'515.6
2018-May-16 03:27N 34°45' W 023°45'815.5
2018-May-16 02:57N 34°47' W 023°36'2015.7
2018-May-16 01:41N 34°50' W 023°12'815.7
2018-May-16 01:09N 34°52' W 023°02'  
2018-May-13 16:59N 35°57' W 005°39'511.2
2018-May-13 16:31N 35°58' W 005°32'510.6
2018-May-13 16:01N 36°00' W 005°26'5 9.8
2018-May-13 15:31N 36°05' W 005°24'2 3.1
2018-May-13 15:00N 36°06' W 005°25'0 0.0
2018-May-13 14:30N 36°06' W 005°25'0 0.0
2018-May-13 14:00N 36°06' W 005°25'0 0.0
2018-May-13 13:30N 36°06' W 005°25'0 0.1
2018-May-13 12:54N 36°06' W 005°25'0 0.1
2018-May-13 12:30N 36°06' W 005°25'0 0.0
2018-May-13 11:57N 36°06' W 005°25'0 0.1
2018-May-13 11:30N 36°06' W 005°25'0 0.3
2018-May-13 11:00N 36°06' W 005°25'0 0.2
2018-May-13 10:30N 36°06' W 005°25'0 0.0
2018-May-13 09:57N 36°06' W 005°25'0 0.1
2018-May-13 08:45N 36°06' W 005°25'0 0.1
2018-May-13 08:30N 36°06' W 005°25'0 0.0
2018-May-13 08:00N 36°06' W 005°25'0 0.0
2018-May-13 07:30N 36°06' W 005°25'0 0.0
2018-May-13 07:00N 36°06' W 005°25'0 0.1
2018-May-13 06:30N 36°06' W 005°25'0 0.1
2018-May-13 06:00N 36°06' W 005°25'0 0.1
2018-May-13 05:30N 36°06' W 005°25'0 0.0
2018-May-13 05:00N 36°06' W 005°25'0 0.0
2018-May-13 04:30N 36°06' W 005°25'0 0.1
2018-May-13 04:00N 36°06' W 005°25'0 0.1
2018-May-13 03:30N 36°06' W 005°25'0 0.0
2018-May-13 03:00N 36°06' W 005°25'0 0.1
2018-May-13 02:30N 36°06' W 005°25'0 0.1
2018-May-13 02:00N 36°06' W 005°25'1 1.9
2018-May-13 01:31N 36°06' W 005°24'3 6.5
2018-May-13 01:01N 36°03' W 005°21'4 8.3
2018-May-13 00:31N 36°04' W 005°16'5 9.7
2018-May-13 00:00N 36°05' W 005°10'5 9.9
2018-May-12 23:29N 36°05' W 005°03'611.5
2018-May-12 22:59N 36°06' W 004°56'24514.3
2018-May-12 05:55N 36°41' E 000°05'715.6
2018-May-12 05:28N 36°42' E 000°13'4214.8
2018-May-12 02:39N 36°49' E 001°04'1114.6
2018-May-12 01:52N 36°53' E 001°18'615.4
2018-May-12 01:30N 36°54' E 001°25'815.5
2018-May-12 01:00N 36°56' E 001°34'  

Dump ship's entire track history